sensor_id;sensor_type;location;lat;lon;timestamp;P1;durP1;ratioP1;P2;durP2;ratioP2
54919;SDS011;63804;53.120;8.764;2024-02-14T00:01:19;8.88;;;2.50;;
54919;SDS011;63804;53.120;8.764;2024-02-14T00:03:47;6.72;;;2.72;;
54919;SDS011;63804;53.120;8.764;2024-02-14T00:06:14;7.15;;;2.63;;
54919;SDS011;63804;53.120;8.764;2024-02-14T00:08:41;6.95;;;2.53;;
54919;SDS011;63804;53.120;8.764;2024-02-14T00:11:09;9.23;;;2.72;;
54919;SDS011;63804;53.120;8.764;2024-02-14T00:13:36;7.00;;;2.72;;
54919;SDS011;63804;53.120;8.764;2024-02-14T00:16:03;5.85;;;2.90;;
54919;SDS011;63804;53.120;8.764;2024-02-14T00:18:33;6.47;;;2.58;;
54919;SDS011;63804;53.120;8.764;2024-02-14T00:21:00;6.47;;;2.75;;
54919;SDS011;63804;53.120;8.764;2024-02-14T00:23:28;7.60;;;2.60;;
54919;SDS011;63804;53.120;8.764;2024-02-14T00:25:55;10.55;;;3.00;;
54919;SDS011;63804;53.120;8.764;2024-02-14T00:28:23;8.27;;;2.78;;
54919;SDS011;63804;53.120;8.764;2024-02-14T00:30:54;6.57;;;2.70;;
54919;SDS011;63804;53.120;8.764;2024-02-14T00:33:21;7.78;;;2.70;;
54919;SDS011;63804;53.120;8.764;2024-02-14T00:35:49;6.75;;;2.42;;
54919;SDS011;63804;53.120;8.764;2024-02-14T00:38:16;6.72;;;2.80;;
54919;SDS011;63804;53.120;8.764;2024-02-14T00:40:44;4.75;;;2.78;;
54919;SDS011;63804;53.120;8.764;2024-02-14T00:43:11;8.05;;;2.78;;
54919;SDS011;63804;53.120;8.764;2024-02-14T00:45:39;8.68;;;3.05;;
54919;SDS011;63804;53.120;8.764;2024-02-14T00:48:06;7.93;;;2.58;;
54919;SDS011;63804;53.120;8.764;2024-02-14T00:50:34;5.28;;;2.90;;
54919;SDS011;63804;53.120;8.764;2024-02-14T00:53:02;9.05;;;3.03;;
54919;SDS011;63804;53.120;8.764;2024-02-14T00:55:29;7.07;;;2.95;;
54919;SDS011;63804;53.120;8.764;2024-02-14T00:57:56;7.20;;;3.30;;
54919;SDS011;63804;53.120;8.764;2024-02-14T01:00:23;7.85;;;3.00;;
54919;SDS011;63804;53.120;8.764;2024-02-14T01:02:50;7.20;;;3.40;;
54919;SDS011;63804;53.120;8.764;2024-02-14T01:05:18;6.65;;;3.25;;
54919;SDS011;63804;53.120;8.764;2024-02-14T01:07:45;5.78;;;2.78;;
54919;SDS011;63804;53.120;8.764;2024-02-14T01:10:13;6.43;;;3.00;;
54919;SDS011;63804;53.120;8.764;2024-02-14T01:12:43;7.43;;;3.00;;
54919;SDS011;63804;53.120;8.764;2024-02-14T01:15:10;6.18;;;3.08;;
54919;SDS011;63804;53.120;8.764;2024-02-14T01:17:37;8.00;;;3.13;;
54919;SDS011;63804;53.120;8.764;2024-02-14T01:20:05;5.20;;;2.92;;
54919;SDS011;63804;53.120;8.764;2024-02-14T01:22:35;6.70;;;2.80;;
54919;SDS011;63804;53.120;8.764;2024-02-14T01:25:03;6.40;;;2.75;;
54919;SDS011;63804;53.120;8.764;2024-02-14T01:27:31;10.55;;;3.10;;
54919;SDS011;63804;53.120;8.764;2024-02-14T01:29:58;6.03;;;3.05;;
54919;SDS011;63804;53.120;8.764;2024-02-14T01:32:25;6.88;;;3.10;;
54919;SDS011;63804;53.120;8.764;2024-02-14T01:34:55;7.07;;;2.80;;
54919;SDS011;63804;53.120;8.764;2024-02-14T01:37:23;6.15;;;2.75;;
54919;SDS011;63804;53.120;8.764;2024-02-14T01:39:50;7.72;;;3.20;;
54919;SDS011;63804;53.120;8.764;2024-02-14T01:42:17;6.05;;;2.55;;
54919;SDS011;63804;53.120;8.764;2024-02-14T01:44:44;7.55;;;3.17;;
54919;SDS011;63804;53.120;8.764;2024-02-14T01:47:11;6.90;;;3.08;;
54919;SDS011;63804;53.120;8.764;2024-02-14T01:49:39;5.60;;;2.88;;
54919;SDS011;63804;53.120;8.764;2024-02-14T01:52:08;6.80;;;2.70;;
54919;SDS011;63804;53.120;8.764;2024-02-14T01:54:35;5.40;;;2.60;;
54919;SDS011;63804;53.120;8.764;2024-02-14T01:57:03;6.47;;;2.90;;
54919;SDS011;63804;53.120;8.764;2024-02-14T01:59:33;6.68;;;3.05;;
54919;SDS011;63804;53.120;8.764;2024-02-14T02:02:01;7.00;;;2.95;;
54919;SDS011;63804;53.120;8.764;2024-02-14T02:04:29;7.78;;;3.17;;
54919;SDS011;63804;53.120;8.764;2024-02-14T02:06:56;6.32;;;3.10;;
54919;SDS011;63804;53.120;8.764;2024-02-14T02:09:23;7.38;;;3.00;;
54919;SDS011;63804;53.120;8.764;2024-02-14T02:11:50;7.60;;;3.10;;
54919;SDS011;63804;53.120;8.764;2024-02-14T02:14:23;7.68;;;3.35;;
54919;SDS011;63804;53.120;8.764;2024-02-14T02:16:50;8.65;;;3.13;;
54919;SDS011;63804;53.120;8.764;2024-02-14T02:19:17;9.23;;;3.58;;
54919;SDS011;63804;53.120;8.764;2024-02-14T02:21:44;7.55;;;3.25;;
54919;SDS011;63804;53.120;8.764;2024-02-14T02:24:13;7.93;;;3.22;;
54919;SDS011;63804;53.120;8.764;2024-02-14T02:26:40;6.18;;;3.05;;
54919;SDS011;63804;53.120;8.764;2024-02-14T02:29:07;10.02;;;3.58;;
54919;SDS011;63804;53.120;8.764;2024-02-14T02:31:34;7.00;;;3.35;;
54919;SDS011;63804;53.120;8.764;2024-02-14T02:34:01;8.65;;;3.50;;
54919;SDS011;63804;53.120;8.764;2024-02-14T02:36:28;7.22;;;3.28;;
54919;SDS011;63804;53.120;8.764;2024-02-14T02:38:56;6.55;;;3.22;;
54919;SDS011;63804;53.120;8.764;2024-02-14T02:41:25;6.45;;;3.28;;
54919;SDS011;63804;53.120;8.764;2024-02-14T02:43:52;6.90;;;3.40;;
54919;SDS011;63804;53.120;8.764;2024-02-14T02:46:21;7.13;;;3.55;;
54919;SDS011;63804;53.120;8.764;2024-02-14T02:48:49;9.13;;;3.50;;
54919;SDS011;63804;53.120;8.764;2024-02-14T02:51:17;7.88;;;3.28;;
54919;SDS011;63804;53.120;8.764;2024-02-14T02:53:44;6.63;;;3.20;;
54919;SDS011;63804;53.120;8.764;2024-02-14T02:56:11;7.63;;;3.42;;
54919;SDS011;63804;53.120;8.764;2024-02-14T02:58:39;9.00;;;3.83;;
54919;SDS011;63804;53.120;8.764;2024-02-14T03:01:07;9.68;;;3.67;;
54919;SDS011;63804;53.120;8.764;2024-02-14T03:03:36;7.80;;;3.67;;
54919;SDS011;63804;53.120;8.764;2024-02-14T03:06:05;6.88;;;3.50;;
54919;SDS011;63804;53.120;8.764;2024-02-14T03:08:32;7.53;;;4.03;;
54919;SDS011;63804;53.120;8.764;2024-02-14T03:11:04;8.68;;;4.00;;
54919;SDS011;63804;53.120;8.764;2024-02-14T03:13:32;9.02;;;3.97;;
54919;SDS011;63804;53.120;8.764;2024-02-14T03:16:00;10.30;;;4.22;;
54919;SDS011;63804;53.120;8.764;2024-02-14T03:18:27;7.10;;;3.85;;
54919;SDS011;63804;53.120;8.764;2024-02-14T03:20:54;8.40;;;4.10;;
54919;SDS011;63804;53.120;8.764;2024-02-14T03:23:21;8.50;;;4.05;;
54919;SDS011;63804;53.120;8.764;2024-02-14T03:25:50;9.73;;;4.30;;
54919;SDS011;63804;53.120;8.764;2024-02-14T03:28:18;10.48;;;4.05;;
54919;SDS011;63804;53.120;8.764;2024-02-14T03:30:45;7.72;;;4.03;;
54919;SDS011;63804;53.120;8.764;2024-02-14T03:33:12;9.15;;;4.13;;
54919;SDS011;63804;53.120;8.764;2024-02-14T03:35:39;7.68;;;3.90;;
54919;SDS011;63804;53.120;8.764;2024-02-14T03:38:07;9.73;;;4.25;;
54919;SDS011;63804;53.120;8.764;2024-02-14T03:40:37;8.68;;;3.78;;
54919;SDS011;63804;53.120;8.764;2024-02-14T03:43:05;8.40;;;4.15;;
54919;SDS011;63804;53.120;8.764;2024-02-14T03:45:32;7.68;;;3.58;;
54919;SDS011;63804;53.120;8.764;2024-02-14T03:47:59;10.05;;;4.13;;
54919;SDS011;63804;53.120;8.764;2024-02-14T03:50:26;8.40;;;3.78;;
54919;SDS011;63804;53.120;8.764;2024-02-14T03:52:53;9.45;;;4.10;;
54919;SDS011;63804;53.120;8.764;2024-02-14T03:55:21;9.23;;;4.47;;
54919;SDS011;63804;53.120;8.764;2024-02-14T03:57:50;7.40;;;3.95;;
54919;SDS011;63804;53.120;8.764;2024-02-14T04:00:17;7.57;;;4.38;;
54919;SDS011;63804;53.120;8.764;2024-02-14T04:02:45;8.02;;;4.07;;
54919;SDS011;63804;53.120;8.764;2024-02-14T04:05:12;7.32;;;3.78;;
54919;SDS011;63804;53.120;8.764;2024-02-14T04:07:39;7.75;;;3.95;;
54919;SDS011;63804;53.120;8.764;2024-02-14T04:10:06;9.75;;;4.38;;
54919;SDS011;63804;53.120;8.764;2024-02-14T04:12:34;8.18;;;3.97;;
54919;SDS011;63804;53.120;8.764;2024-02-14T04:15:01;9.30;;;4.05;;
54919;SDS011;63804;53.120;8.764;2024-02-14T04:17:28;9.20;;;4.28;;
54919;SDS011;63804;53.120;8.764;2024-02-14T04:19:55;9.05;;;4.28;;
54919;SDS011;63804;53.120;8.764;2024-02-14T04:22:22;8.43;;;4.20;;
54919;SDS011;63804;53.120;8.764;2024-02-14T04:24:49;8.60;;;4.25;;
54919;SDS011;63804;53.120;8.764;2024-02-14T04:27:16;8.75;;;4.30;;
54919;SDS011;63804;53.120;8.764;2024-02-14T04:29:46;8.80;;;4.18;;
54919;SDS011;63804;53.120;8.764;2024-02-14T04:32:14;7.03;;;4.28;;
54919;SDS011;63804;53.120;8.764;2024-02-14T04:34:41;8.07;;;3.95;;
54919;SDS011;63804;53.120;8.764;2024-02-14T04:37:10;8.32;;;4.60;;
54919;SDS011;63804;53.120;8.764;2024-02-14T04:39:40;8.55;;;4.18;;
54919;SDS011;63804;53.120;8.764;2024-02-14T04:42:09;6.43;;;4.28;;
54919;SDS011;63804;53.120;8.764;2024-02-14T04:44:36;7.13;;;3.83;;
54919;SDS011;63804;53.120;8.764;2024-02-14T04:47:03;7.30;;;4.00;;
54919;SDS011;63804;53.120;8.764;2024-02-14T04:49:30;7.28;;;4.07;;
54919;SDS011;63804;53.120;8.764;2024-02-14T04:51:57;7.55;;;4.30;;
54919;SDS011;63804;53.120;8.764;2024-02-14T04:54:25;8.25;;;4.40;;
54919;SDS011;63804;53.120;8.764;2024-02-14T04:56:53;8.75;;;4.07;;
54919;SDS011;63804;53.120;8.764;2024-02-14T04:59:25;6.65;;;4.13;;
54919;SDS011;63804;53.120;8.764;2024-02-14T05:01:53;6.93;;;4.03;;
54919;SDS011;63804;53.120;8.764;2024-02-14T05:04:21;9.38;;;4.75;;
54919;SDS011;63804;53.120;8.764;2024-02-14T05:06:48;7.63;;;4.28;;
54919;SDS011;63804;53.120;8.764;2024-02-14T05:09:17;8.45;;;4.28;;
54919;SDS011;63804;53.120;8.764;2024-02-14T05:11:45;7.53;;;4.15;;
54919;SDS011;63804;53.120;8.764;2024-02-14T05:14:12;7.05;;;4.22;;
54919;SDS011;63804;53.120;8.764;2024-02-14T05:16:38;7.50;;;3.90;;
54919;SDS011;63804;53.120;8.764;2024-02-14T05:19:05;7.57;;;4.18;;
54919;SDS011;63804;53.120;8.764;2024-02-14T05:21:33;7.55;;;4.20;;
54919;SDS011;63804;53.120;8.764;2024-02-14T05:24:00;7.88;;;4.00;;
54919;SDS011;63804;53.120;8.764;2024-02-14T05:26:27;8.65;;;4.13;;
54919;SDS011;63804;53.120;8.764;2024-02-14T05:28:55;6.47;;;3.63;;
54919;SDS011;63804;53.120;8.764;2024-02-14T05:31:22;8.32;;;4.43;;
54919;SDS011;63804;53.120;8.764;2024-02-14T05:33:49;8.02;;;4.22;;
54919;SDS011;63804;53.120;8.764;2024-02-14T05:36:16;7.35;;;4.10;;
54919;SDS011;63804;53.120;8.764;2024-02-14T05:38:43;6.82;;;3.90;;
54919;SDS011;63804;53.120;8.764;2024-02-14T05:41:11;8.20;;;4.25;;
54919;SDS011;63804;53.120;8.764;2024-02-14T05:43:38;7.50;;;3.90;;
54919;SDS011;63804;53.120;8.764;2024-02-14T05:46:05;6.13;;;3.63;;
54919;SDS011;63804;53.120;8.764;2024-02-14T05:48:32;7.80;;;4.03;;
54919;SDS011;63804;53.120;8.764;2024-02-14T05:50:59;8.05;;;4.00;;
54919;SDS011;63804;53.120;8.764;2024-02-14T05:53:26;7.13;;;4.20;;
54919;SDS011;63804;53.120;8.764;2024-02-14T05:55:53;7.32;;;4.05;;
54919;SDS011;63804;53.120;8.764;2024-02-14T05:58:20;6.53;;;3.90;;
54919;SDS011;63804;53.120;8.764;2024-02-14T06:00:47;7.88;;;4.50;;
54919;SDS011;63804;53.120;8.764;2024-02-14T06:03:14;8.25;;;3.92;;
54919;SDS011;63804;53.120;8.764;2024-02-14T06:05:42;7.47;;;4.05;;
54919;SDS011;63804;53.120;8.764;2024-02-14T06:08:09;7.03;;;4.13;;
54919;SDS011;63804;53.120;8.764;2024-02-14T06:10:36;7.88;;;4.35;;
54919;SDS011;63804;53.120;8.764;2024-02-14T06:13:05;7.30;;;4.00;;
54919;SDS011;63804;53.120;8.764;2024-02-14T06:15:32;7.20;;;4.30;;
54919;SDS011;63804;53.120;8.764;2024-02-14T06:17:59;5.57;;;3.90;;
54919;SDS011;63804;53.120;8.764;2024-02-14T06:20:26;6.13;;;3.78;;
54919;SDS011;63804;53.120;8.764;2024-02-14T06:22:54;7.75;;;4.50;;
54919;SDS011;63804;53.120;8.764;2024-02-14T06:25:31;6.80;;;4.22;;
54919;SDS011;63804;53.120;8.764;2024-02-14T06:27:58;5.80;;;3.75;;
54919;SDS011;63804;53.120;8.764;2024-02-14T06:30:25;7.10;;;4.18;;
54919;SDS011;63804;53.120;8.764;2024-02-14T06:32:57;5.97;;;4.15;;
54919;SDS011;63804;53.120;8.764;2024-02-14T06:35:28;8.30;;;4.22;;
54919;SDS011;63804;53.120;8.764;2024-02-14T06:37:57;7.03;;;4.25;;
54919;SDS011;63804;53.120;8.764;2024-02-14T06:40:30;7.07;;;4.18;;
54919;SDS011;63804;53.120;8.764;2024-02-14T06:42:58;7.45;;;4.07;;
54919;SDS011;63804;53.120;8.764;2024-02-14T06:45:29;7.53;;;4.32;;
54919;SDS011;63804;53.120;8.764;2024-02-14T06:47:56;6.38;;;4.38;;
54919;SDS011;63804;53.120;8.764;2024-02-14T06:50:23;6.47;;;4.20;;
54919;SDS011;63804;53.120;8.764;2024-02-14T06:52:55;6.13;;;4.03;;
54919;SDS011;63804;53.120;8.764;2024-02-14T06:55:27;6.97;;;4.32;;
54919;SDS011;63804;53.120;8.764;2024-02-14T06:57:54;6.28;;;4.07;;
54919;SDS011;63804;53.120;8.764;2024-02-14T07:00:21;6.28;;;4.55;;
54919;SDS011;63804;53.120;8.764;2024-02-14T07:02:48;7.93;;;4.60;;
54919;SDS011;63804;53.120;8.764;2024-02-14T07:05:15;6.70;;;4.40;;
54919;SDS011;63804;53.120;8.764;2024-02-14T07:07:42;7.03;;;4.65;;
54919;SDS011;63804;53.120;8.764;2024-02-14T07:10:09;6.13;;;4.15;;
54919;SDS011;63804;53.120;8.764;2024-02-14T07:12:36;6.15;;;4.35;;
54919;SDS011;63804;53.120;8.764;2024-02-14T07:15:04;8.60;;;4.30;;
54919;SDS011;63804;53.120;8.764;2024-02-14T07:17:32;7.13;;;4.55;;
54919;SDS011;63804;53.120;8.764;2024-02-14T07:20:00;6.47;;;4.10;;
54919;SDS011;63804;53.120;8.764;2024-02-14T07:22:28;7.32;;;4.38;;
54919;SDS011;63804;53.120;8.764;2024-02-14T07:24:57;7.03;;;4.55;;
54919;SDS011;63804;53.120;8.764;2024-02-14T07:27:24;8.05;;;4.32;;
54919;SDS011;63804;53.120;8.764;2024-02-14T07:29:51;6.88;;;4.22;;
54919;SDS011;63804;53.120;8.764;2024-02-14T07:32:19;7.72;;;3.97;;
54919;SDS011;63804;53.120;8.764;2024-02-14T07:34:46;7.00;;;4.05;;
54919;SDS011;63804;53.120;8.764;2024-02-14T07:37:14;6.72;;;3.80;;
54919;SDS011;63804;53.120;8.764;2024-02-14T07:39:46;5.95;;;3.67;;
54919;SDS011;63804;53.120;8.764;2024-02-14T07:42:14;6.88;;;3.60;;
54919;SDS011;63804;53.120;8.764;2024-02-14T07:44:41;7.10;;;3.70;;
54919;SDS011;63804;53.120;8.764;2024-02-14T07:47:09;6.30;;;4.00;;
54919;SDS011;63804;53.120;8.764;2024-02-14T07:49:36;5.47;;;3.80;;
54919;SDS011;63804;53.120;8.764;2024-02-14T07:52:04;5.55;;;3.55;;
54919;SDS011;63804;53.120;8.764;2024-02-14T07:54:31;5.30;;;3.63;;
54919;SDS011;63804;53.120;8.764;2024-02-14T07:56:58;5.38;;;3.53;;
54919;SDS011;63804;53.120;8.764;2024-02-14T07:59:25;5.50;;;3.45;;
54919;SDS011;63804;53.120;8.764;2024-02-14T08:01:55;6.75;;;3.55;;
54919;SDS011;63804;53.120;8.764;2024-02-14T08:04:24;6.32;;;3.50;;
54919;SDS011;63804;53.120;8.764;2024-02-14T08:06:52;5.13;;;3.45;;
54919;SDS011;63804;53.120;8.764;2024-02-14T08:09:19;5.05;;;3.25;;
54919;SDS011;63804;53.120;8.764;2024-02-14T08:11:46;5.47;;;3.08;;
54919;SDS011;63804;53.120;8.764;2024-02-14T08:14:13;5.72;;;3.13;;
54919;SDS011;63804;53.120;8.764;2024-02-14T08:16:40;4.20;;;3.00;;
54919;SDS011;63804;53.120;8.764;2024-02-14T08:19:07;4.75;;;3.22;;
54919;SDS011;63804;53.120;8.764;2024-02-14T08:21:34;5.03;;;3.13;;
54919;SDS011;63804;53.120;8.764;2024-02-14T08:24:02;3.88;;;2.95;;
54919;SDS011;63804;53.120;8.764;2024-02-14T08:26:30;6.30;;;2.92;;
54919;SDS011;63804;53.120;8.764;2024-02-14T08:28:58;5.25;;;2.58;;
54919;SDS011;63804;53.120;8.764;2024-02-14T08:31:25;3.28;;;2.30;;
54919;SDS011;63804;53.120;8.764;2024-02-14T08:33:52;4.03;;;2.35;;
54919;SDS011;63804;53.120;8.764;2024-02-14T08:36:21;3.47;;;2.35;;
54919;SDS011;63804;53.120;8.764;2024-02-14T08:38:48;3.30;;;1.80;;
54919;SDS011;63804;53.120;8.764;2024-02-14T08:41:16;3.28;;;2.00;;
54919;SDS011;63804;53.120;8.764;2024-02-14T08:43:45;3.47;;;2.10;;
54919;SDS011;63804;53.120;8.764;2024-02-14T08:46:13;2.67;;;1.92;;
54919;SDS011;63804;53.120;8.764;2024-02-14T08:48:41;3.03;;;1.90;;
54919;SDS011;63804;53.120;8.764;2024-02-14T08:51:15;2.60;;;1.90;;
54919;SDS011;63804;53.120;8.764;2024-02-14T08:53:44;3.40;;;2.13;;
54919;SDS011;63804;53.120;8.764;2024-02-14T08:56:12;3.65;;;2.08;;
54919;SDS011;63804;53.120;8.764;2024-02-14T08:58:41;4.47;;;2.25;;
54919;SDS011;63804;53.120;8.764;2024-02-14T09:01:08;4.57;;;2.35;;
54919;SDS011;63804;53.120;8.764;2024-02-14T09:03:44;5.10;;;2.50;;
54919;SDS011;63804;53.120;8.764;2024-02-14T09:06:17;3.10;;;2.22;;
54919;SDS011;63804;53.120;8.764;2024-02-14T09:08:45;3.38;;;2.30;;
54919;SDS011;63804;53.120;8.764;2024-02-14T09:11:13;3.15;;;2.40;;
54919;SDS011;63804;53.120;8.764;2024-02-14T09:13:40;4.47;;;2.80;;
54919;SDS011;63804;53.120;8.764;2024-02-14T09:16:08;6.80;;;3.15;;
54919;SDS011;63804;53.120;8.764;2024-02-14T09:18:36;4.32;;;3.05;;
54919;SDS011;63804;53.120;8.764;2024-02-14T09:21:04;4.20;;;3.00;;
54919;SDS011;63804;53.120;8.764;2024-02-14T09:23:33;4.28;;;2.88;;
54919;SDS011;63804;53.120;8.764;2024-02-14T09:26:00;5.28;;;3.40;;
54919;SDS011;63804;53.120;8.764;2024-02-14T09:28:29;5.65;;;3.30;;
54919;SDS011;63804;53.120;8.764;2024-02-14T09:30:56;5.22;;;3.10;;
54919;SDS011;63804;53.120;8.764;2024-02-14T09:33:23;5.82;;;3.42;;
54919;SDS011;63804;53.120;8.764;2024-02-14T09:35:52;6.25;;;3.83;;
54919;SDS011;63804;53.120;8.764;2024-02-14T09:38:20;5.90;;;3.55;;
54919;SDS011;63804;53.120;8.764;2024-02-14T09:40:48;7.13;;;3.88;;
54919;SDS011;63804;53.120;8.764;2024-02-14T09:43:34;6.28;;;3.85;;
54919;SDS011;63804;53.120;8.764;2024-02-14T09:46:05;8.30;;;4.63;;
54919;SDS011;63804;53.120;8.764;2024-02-14T09:48:34;6.55;;;3.70;;
54919;SDS011;63804;53.120;8.764;2024-02-14T09:51:05;8.85;;;5.20;;
54919;SDS011;63804;53.120;8.764;2024-02-14T09:53:34;7.80;;;4.72;;
54919;SDS011;63804;53.120;8.764;2024-02-14T09:56:02;8.20;;;4.95;;
54919;SDS011;63804;53.120;8.764;2024-02-14T09:58:30;8.60;;;4.90;;
54919;SDS011;63804;53.120;8.764;2024-02-14T10:00:58;8.25;;;5.13;;
54919;SDS011;63804;53.120;8.764;2024-02-14T10:03:26;7.72;;;4.80;;
54919;SDS011;63804;53.120;8.764;2024-02-14T10:05:53;9.73;;;5.43;;
54919;SDS011;63804;53.120;8.764;2024-02-14T10:08:21;8.73;;;5.03;;
54919;SDS011;63804;53.120;8.764;2024-02-14T10:10:49;9.45;;;5.60;;
54919;SDS011;63804;53.120;8.764;2024-02-14T10:13:19;8.88;;;4.97;;
54919;SDS011;63804;53.120;8.764;2024-02-14T10:15:46;8.85;;;5.32;;
54919;SDS011;63804;53.120;8.764;2024-02-14T10:18:14;8.60;;;5.28;;
54919;SDS011;63804;53.120;8.764;2024-02-14T10:20:52;8.40;;;5.13;;
54919;SDS011;63804;53.120;8.764;2024-02-14T10:23:23;9.10;;;5.30;;
54919;SDS011;63804;53.120;8.764;2024-02-14T10:25:52;9.00;;;5.38;;
54919;SDS011;63804;53.120;8.764;2024-02-14T10:28:20;8.40;;;5.15;;
54919;SDS011;63804;53.120;8.764;2024-02-14T10:30:58;9.23;;;5.43;;
54919;SDS011;63804;53.120;8.764;2024-02-14T10:33:29;10.80;;;5.18;;
54919;SDS011;63804;53.120;8.764;2024-02-14T10:35:57;9.32;;;5.30;;
54919;SDS011;63804;53.120;8.764;2024-02-14T10:38:31;8.70;;;5.30;;
54919;SDS011;63804;53.120;8.764;2024-02-14T10:41:00;8.85;;;5.35;;
54919;SDS011;63804;53.120;8.764;2024-02-14T10:43:28;8.55;;;5.18;;
54919;SDS011;63804;53.120;8.764;2024-02-14T10:45:56;8.40;;;4.95;;
54919;SDS011;63804;53.120;8.764;2024-02-14T10:48:29;7.53;;;4.68;;
54919;SDS011;63804;53.120;8.764;2024-02-14T10:51:02;9.02;;;5.45;;
54919;SDS011;63804;53.120;8.764;2024-02-14T10:53:33;8.98;;;5.43;;
54919;SDS011;63804;53.120;8.764;2024-02-14T10:56:01;8.02;;;5.07;;
54919;SDS011;63804;53.120;8.764;2024-02-14T10:58:29;9.82;;;5.53;;
54919;SDS011;63804;53.120;8.764;2024-02-14T11:00:57;8.55;;;5.40;;
54919;SDS011;63804;53.120;8.764;2024-02-14T11:03:25;9.32;;;5.57;;
54919;SDS011;63804;53.120;8.764;2024-02-14T11:05:53;9.32;;;5.10;;
54919;SDS011;63804;53.120;8.764;2024-02-14T11:10:56;8.00;;;4.68;;
54919;SDS011;63804;53.120;8.764;2024-02-14T11:13:25;9.27;;;5.20;;
54919;SDS011;63804;53.120;8.764;2024-02-14T11:15:54;8.23;;;5.22;;
54919;SDS011;63804;53.120;8.764;2024-02-14T11:18:26;8.95;;;5.10;;
54919;SDS011;63804;53.120;8.764;2024-02-14T11:20:57;9.23;;;5.32;;
54919;SDS011;63804;53.120;8.764;2024-02-14T11:23:25;9.18;;;5.10;;
54919;SDS011;63804;53.120;8.764;2024-02-14T11:26:26;8.10;;;4.88;;
54919;SDS011;63804;53.120;8.764;2024-02-14T11:28:46;8.27;;;5.25;;
54919;SDS011;63804;53.120;8.764;2024-02-14T11:31:18;9.18;;;5.18;;
54919;SDS011;63804;53.120;8.764;2024-02-14T11:33:45;9.77;;;5.00;;
54919;SDS011;63804;53.120;8.764;2024-02-14T11:36:13;8.82;;;5.00;;
54919;SDS011;63804;53.120;8.764;2024-02-14T11:38:44;8.80;;;5.00;;
54919;SDS011;63804;53.120;8.764;2024-02-14T11:41:11;8.65;;;4.53;;
54919;SDS011;63804;53.120;8.764;2024-02-14T11:43:38;8.25;;;5.13;;
54919;SDS011;63804;53.120;8.764;2024-02-14T11:46:06;9.30;;;4.57;;
54919;SDS011;63804;53.120;8.764;2024-02-14T11:48:33;7.43;;;4.30;;
54919;SDS011;63804;53.120;8.764;2024-02-14T11:51:01;7.88;;;4.50;;
54919;SDS011;63804;53.120;8.764;2024-02-14T11:53:29;8.52;;;4.65;;
54919;SDS011;63804;53.120;8.764;2024-02-14T11:55:56;7.28;;;4.05;;
54919;SDS011;63804;53.120;8.764;2024-02-14T11:58:23;8.25;;;4.50;;
54919;SDS011;63804;53.120;8.764;2024-02-14T12:00:50;7.75;;;4.18;;
54919;SDS011;63804;53.120;8.764;2024-02-14T12:03:18;8.55;;;4.10;;
54919;SDS011;63804;53.120;8.764;2024-02-14T12:05:48;6.88;;;4.05;;
54919;SDS011;63804;53.120;8.764;2024-02-14T12:08:17;7.10;;;4.10;;
54919;SDS011;63804;53.120;8.764;2024-02-14T12:10:45;7.68;;;4.00;;
54919;SDS011;63804;53.120;8.764;2024-02-14T12:13:15;7.28;;;3.95;;
54919;SDS011;63804;53.120;8.764;2024-02-14T12:15:45;6.97;;;4.22;;
54919;SDS011;63804;53.120;8.764;2024-02-14T12:18:13;8.02;;;4.55;;
54919;SDS011;63804;53.120;8.764;2024-02-14T12:20:42;6.97;;;4.53;;
54919;SDS011;63804;53.120;8.764;2024-02-14T12:23:17;8.18;;;4.55;;
54919;SDS011;63804;53.120;8.764;2024-02-14T12:25:45;8.63;;;4.25;;
54919;SDS011;63804;53.120;8.764;2024-02-14T12:28:16;7.85;;;4.40;;
54919;SDS011;63804;53.120;8.764;2024-02-14T12:30:57;8.65;;;4.05;;
54919;SDS011;63804;53.120;8.764;2024-02-14T12:33:46;6.07;;;3.70;;
54919;SDS011;63804;53.120;8.764;2024-02-14T12:36:14;6.95;;;3.90;;
54919;SDS011;63804;53.120;8.764;2024-02-14T12:38:41;7.20;;;3.83;;
54919;SDS011;63804;53.120;8.764;2024-02-14T12:41:09;6.78;;;3.85;;
54919;SDS011;63804;53.120;8.764;2024-02-14T12:43:36;5.70;;;3.60;;
54919;SDS011;63804;53.120;8.764;2024-02-14T12:46:03;5.68;;;3.50;;
54919;SDS011;63804;53.120;8.764;2024-02-14T12:48:31;6.72;;;3.63;;
54919;SDS011;63804;53.120;8.764;2024-02-14T12:50:58;8.23;;;4.43;;
54919;SDS011;63804;53.120;8.764;2024-02-14T12:53:25;7.82;;;4.20;;
54919;SDS011;63804;53.120;8.764;2024-02-14T12:55:53;6.90;;;4.07;;
54919;SDS011;63804;53.120;8.764;2024-02-14T12:58:20;6.97;;;3.65;;
54919;SDS011;63804;53.120;8.764;2024-02-14T13:00:47;5.60;;;3.45;;
54919;SDS011;63804;53.120;8.764;2024-02-14T13:03:15;5.50;;;3.55;;
54919;SDS011;63804;53.120;8.764;2024-02-14T13:05:44;5.68;;;3.80;;
54919;SDS011;63804;53.120;8.764;2024-02-14T13:08:11;5.38;;;3.40;;
54919;SDS011;63804;53.120;8.764;2024-02-14T13:10:39;5.88;;;3.63;;
54919;SDS011;63804;53.120;8.764;2024-02-14T13:13:06;6.53;;;3.85;;
54919;SDS011;63804;53.120;8.764;2024-02-14T13:15:33;7.80;;;3.97;;
54919;SDS011;63804;53.120;8.764;2024-02-14T13:18:00;6.38;;;3.55;;
54919;SDS011;63804;53.120;8.764;2024-02-14T13:20:29;7.53;;;3.90;;
54919;SDS011;63804;53.120;8.764;2024-02-14T13:22:57;6.22;;;3.70;;
54919;SDS011;63804;53.120;8.764;2024-02-14T13:25:25;9.23;;;4.10;;
54919;SDS011;63804;53.120;8.764;2024-02-14T13:27:52;7.38;;;4.28;;
54919;SDS011;63804;53.120;8.764;2024-02-14T13:30:21;6.75;;;4.00;;
54919;SDS011;63804;53.120;8.764;2024-02-14T13:32:49;8.23;;;3.92;;
54919;SDS011;63804;53.120;8.764;2024-02-14T13:35:16;6.75;;;3.38;;
54919;SDS011;63804;53.120;8.764;2024-02-14T13:37:44;6.93;;;3.60;;
54919;SDS011;63804;53.120;8.764;2024-02-14T13:40:11;6.03;;;3.42;;
54919;SDS011;63804;53.120;8.764;2024-02-14T13:42:38;8.77;;;3.70;;
54919;SDS011;63804;53.120;8.764;2024-02-14T13:45:06;5.70;;;3.67;;
54919;SDS011;63804;53.120;8.764;2024-02-14T13:47:37;6.13;;;3.53;;
54919;SDS011;63804;53.120;8.764;2024-02-14T13:50:10;5.33;;;3.27;;
54919;SDS011;63804;53.120;8.764;2024-02-14T13:52:39;6.00;;;3.20;;
54919;SDS011;63804;53.120;8.764;2024-02-14T13:55:06;7.30;;;4.15;;
54919;SDS011;63804;53.120;8.764;2024-02-14T14:00:10;7.18;;;3.75;;
54919;SDS011;63804;53.120;8.764;2024-02-14T14:02:38;5.25;;;3.38;;
54919;SDS011;63804;53.120;8.764;2024-02-14T14:05:09;8.05;;;3.75;;
54919;SDS011;63804;53.120;8.764;2024-02-14T14:07:39;6.10;;;3.58;;
54919;SDS011;63804;53.120;8.764;2024-02-14T14:10:23;6.80;;;3.85;;
54919;SDS011;63804;53.120;8.764;2024-02-14T14:12:53;6.50;;;3.75;;
54919;SDS011;63804;53.120;8.764;2024-02-14T14:15:22;7.32;;;3.88;;
54919;SDS011;63804;53.120;8.764;2024-02-14T14:17:50;7.47;;;4.18;;
54919;SDS011;63804;53.120;8.764;2024-02-14T14:20:21;6.53;;;3.75;;
54919;SDS011;63804;53.120;8.764;2024-02-14T14:22:49;7.70;;;3.67;;
54919;SDS011;63804;53.120;8.764;2024-02-14T14:25:16;8.27;;;4.13;;
54919;SDS011;63804;53.120;8.764;2024-02-14T14:27:45;7.00;;;4.00;;
54919;SDS011;63804;53.120;8.764;2024-02-14T14:30:12;7.57;;;4.35;;
54919;SDS011;63804;53.120;8.764;2024-02-14T14:32:40;7.85;;;3.97;;
54919;SDS011;63804;53.120;8.764;2024-02-14T14:35:08;6.88;;;4.05;;
54919;SDS011;63804;53.120;8.764;2024-02-14T14:37:38;9.57;;;4.10;;
54919;SDS011;63804;53.120;8.764;2024-02-14T14:40:05;8.20;;;4.43;;
54919;SDS011;63804;53.120;8.764;2024-02-14T14:42:36;8.65;;;4.28;;
54919;SDS011;63804;53.120;8.764;2024-02-14T14:45:06;9.70;;;4.65;;
54919;SDS011;63804;53.120;8.764;2024-02-14T14:47:34;7.88;;;4.60;;
54919;SDS011;63804;53.120;8.764;2024-02-14T14:50:02;7.80;;;4.30;;
54919;SDS011;63804;53.120;8.764;2024-02-14T14:52:30;7.13;;;3.80;;
54919;SDS011;63804;53.120;8.764;2024-02-14T14:54:57;6.32;;;3.85;;
54919;SDS011;63804;53.120;8.764;2024-02-14T14:57:24;7.38;;;4.28;;
54919;SDS011;63804;53.120;8.764;2024-02-14T14:59:55;7.28;;;4.60;;